TFM - Tactical Decision Aid
ID: Runway Winds: CIG/VIS Threshold:

KBWI - Baltimore-Washington, MD, US

Updated at: 1923 UTC 19 Aug 2019
Latest TAF at: 1725 UTC 19 Aug 2019

TAF Board

Time1854Z 19/20Z 19/21Z 19/22Z 19/23Z 20/00Z 20/01Z 20/02Z 20/03Z 20/04Z 20/05Z 20/06Z 20/07Z 20/08Z>>
Type OBS PRVL PRVL PRVL PRVL PRVL PRVL PRVL PRVL PRVL PRVL PRVL PRVL PRVL
VIS 10 >6 >6 >6 >6 >6 >6 >6 >6 >6 >6 >6 >6 >6
CIG 250 -- -- -- -- -- -- -- -- -- -- -- -- --
Cover BKN SCT SCT SCT SCT SCT SCT SCT SCT SCT SCT SCT SCT SCT
FltCat VFR VFR VFR VFR VFR VFR VFR VFR VFR VFR VFR VFR VFR VFR
WX -- VCTS VCTS VCTS -- -- -- -- -- -- -- -- -- --
WDir 290 210 210 210 200 200 200 200 200 200 200 200 200 200
WSpd 9 6 6 6 5 5 5 5 5 5 5 5 5 5
WGst -- -- -- -- -- -- -- -- -- -- -- -- -- --

TDA Impact Legend

  None Marginal Slight Moderate High
Visibility (sm) >5 3≤X≤5 1≤X<3 0.5≤X<1 <0.5
Ceiling (100 ft) >30 10≤X≤30 4≤X<10 2≤X<4 <2
Wind Speed (kt) <15 15≤X<25 25≤X<30 ≥30
Wind Gust (kt) <15 15≤X<25 25≤X<35 ≥35
Weather No Wx Reported VCTS -TS,-FZRA TS,FZRA +TS,+FZRA
TAF
KBWI 191725Z 1918/2024 20007KT P6SM FEW050
  FM191900 21006KT P6SM VCTS SCT050CB
  FM192300 20005KT P6SM SCT250
  FM201900 14004KT P6SM VCTS SCT050CB


METAR
KBWI 191854Z 29009KT 10SM SCT060TCU SCT100 BKN250 37/21 A2996 RMK AO2 SLP144 TCU NE-SE T03670206
KBWI 191754Z 29009KT 10SM SCT060 SCT100 SCT180 BKN250 37/20 A2997 RMK AO2 SLP148 T03720200 10372 20244 58009
KBWI 191654Z 27009KT 10SM FEW055 FEW180 SCT250 36/21 A2999 RMK AO2 SLP153 T03610206
KBWI 191554Z 26005KT 10SM FEW180 SCT250 33/22 A2999 RMK AO2 SLP155 T03330217

Radar Display
Forecast Discussion